sensor_id;sensor_type;location;lat;lon;timestamp;temperature;humidity
76750;DHT22;66447;35.844;14.468;2024-01-10T00:07:17;14.21;118.99
76750;DHT22;66447;35.844;14.468;2024-01-10T00:22:18;14.27;118.99
76750;DHT22;66447;35.844;14.468;2024-01-10T00:37:19;14.36;118.99
76750;DHT22;66447;35.844;14.468;2024-01-10T00:52:20;14.12;118.99
76750;DHT22;66447;35.844;14.468;2024-01-10T01:07:21;14.19;118.99
76750;DHT22;66447;35.844;14.468;2024-01-10T01:22:22;14.06;118.99
76750;DHT22;66447;35.844;14.468;2024-01-10T01:37:23;14.24;118.99
76750;DHT22;66447;35.844;14.468;2024-01-10T01:52:24;14.43;118.99
76750;DHT22;66447;35.844;14.468;2024-01-10T02:07:26;14.42;118.99
76750;DHT22;66447;35.844;14.468;2024-01-10T02:22:27;14.28;118.99
76750;DHT22;66447;35.844;14.468;2024-01-10T02:37:29;14.74;118.99
76750;DHT22;66447;35.844;14.468;2024-01-10T02:52:29;14.20;118.99
76750;DHT22;66447;35.844;14.468;2024-01-10T03:07:30;14.09;118.99
76750;DHT22;66447;35.844;14.468;2024-01-10T03:22:31;14.19;118.99
76750;DHT22;66447;35.844;14.468;2024-01-10T09:17:19;20.57;118.99
76750;DHT22;66447;35.844;14.468;2024-01-10T09:32:21;22.13;118.99
76750;DHT22;66447;35.844;14.468;2024-01-10T09:47:23;23.05;-6.00
76750;DHT22;66447;35.844;14.468;2024-01-10T10:02:23;21.95;-6.00
76750;DHT22;66447;35.844;14.468;2024-01-10T10:17:28;22.58;-6.00
76750;DHT22;66447;35.844;14.468;2024-01-10T10:32:30;21.37;-6.00
76750;DHT22;66447;35.844;14.468;2024-01-10T10:47:36;20.51;118.99
76750;DHT22;66447;35.844;14.468;2024-01-10T11:02:37;20.60;7.87
76750;DHT22;66447;35.844;14.468;2024-01-10T11:33:24;21.57;-6.00
76750;DHT22;66447;35.844;14.468;2024-01-10T11:48:28;22.33;-6.00
76750;DHT22;66447;35.844;14.468;2024-01-10T12:03:30;20.89;-6.00
76750;DHT22;66447;35.844;14.468;2024-01-10T12:18:32;20.69;-6.00
76750;DHT22;66447;35.844;14.468;2024-01-10T12:33:33;19.74;-6.00
76750;DHT22;66447;35.844;14.468;2024-01-10T12:48:35;21.28;-6.00
76750;DHT22;66447;35.844;14.468;2024-01-10T13:03:41;19.79;-6.00
76750;DHT22;66447;35.844;14.468;2024-01-10T13:18:43;21.67;-6.00
76750;DHT22;66447;35.844;14.468;2024-01-10T13:33:44;21.07;-6.00
76750;DHT22;66447;35.844;14.468;2024-01-10T13:48:45;19.43;-6.00
76750;DHT22;66447;35.844;14.468;2024-01-10T14:03:46;18.84;-6.00
76750;DHT22;66447;35.844;14.468;2024-01-10T14:18:48;20.53;-6.00
76750;DHT22;66447;35.844;14.468;2024-01-10T14:33:49;19.81;-6.00
76750;DHT22;66447;35.844;14.468;2024-01-10T14:48:50;19.67;-6.00
76750;DHT22;66447;35.844;14.468;2024-01-10T15:03:51;18.38;-6.00
76750;DHT22;66447;35.844;14.468;2024-01-10T15:18:52;18.68;-6.00
76750;DHT22;66447;35.844;14.468;2024-01-10T15:33:54;18.22;-6.00
76750;DHT22;66447;35.844;14.468;2024-01-10T15:48:55;18.57;-6.00
76750;DHT22;66447;35.844;14.468;2024-01-10T16:03:57;18.19;-6.00
76750;DHT22;66447;35.844;14.468;2024-01-10T16:18:58;17.83;-6.00
76750;DHT22;66447;35.844;14.468;2024-01-10T16:34:00;18.03;-6.00
76750;DHT22;66447;35.844;14.468;2024-01-10T16:49:01;18.18;-6.00
76750;DHT22;66447;35.844;14.468;2024-01-10T17:04:03;18.97;-6.00
76750;DHT22;66447;35.844;14.468;2024-01-10T17:19:04;18.82;-6.00
76750;DHT22;66447;35.844;14.468;2024-01-10T17:34:06;18.49;-6.00
76750;DHT22;66447;35.844;14.468;2024-01-10T17:49:08;18.99;-6.00
76750;DHT22;66447;35.844;14.468;2024-01-10T18:04:09;18.17;-6.00
76750;DHT22;66447;35.844;14.468;2024-01-10T18:19:09;18.43;-6.00
76750;DHT22;66447;35.844;14.468;2024-01-10T18:34:12;18.39;-6.00
76750;DHT22;66447;35.844;14.468;2024-01-10T18:49:13;18.15;-6.00
76750;DHT22;66447;35.844;14.468;2024-01-10T19:04:14;18.32;-6.00
76750;DHT22;66447;35.844;14.468;2024-01-10T19:19:15;17.79;-6.00
76750;DHT22;66447;35.844;14.468;2024-01-10T19:34:16;18.36;-6.00
76750;DHT22;66447;35.844;14.468;2024-01-10T19:49:18;18.56;-6.00
